createdAt,value
2022-09-06T00:00:41.306Z,72.04
2022-09-06T00:01:42.813Z,72.35
2022-09-06T00:02:44.518Z,72.07
2022-09-06T00:03:46.355Z,72.63
2022-09-06T00:04:47.757Z,72.73
2022-09-06T00:05:49.486Z,72.88
2022-09-06T00:06:50.843Z,73.21
2022-09-06T00:07:52.183Z,73.04
2022-09-06T00:08:53.546Z,73.15
2022-09-06T00:09:54.883Z,73.08
2022-09-06T00:11:00.380Z,73.28
2022-09-06T00:12:02.620Z,73.31
2022-09-06T00:13:05.186Z,73.10
2022-09-06T00:14:06.608Z,73.16
2022-09-06T00:15:08.163Z,73.10
2022-09-06T00:16:11.360Z,73.01
2022-09-06T00:17:13.860Z,72.89
2022-09-06T00:18:15.210Z,73.21
2022-09-06T00:19:16.565Z,73.15
2022-09-06T00:20:17.969Z,73.11
2022-09-06T00:21:19.275Z,73.30
2022-09-06T00:22:20.624Z,73.00
2022-09-06T00:23:21.983Z,73.11
2022-09-06T00:24:23.387Z,73.42
2022-09-06T00:25:24.835Z,73.36
2022-09-06T00:26:26.188Z,73.37
2022-09-06T00:27:27.531Z,73.30
2022-09-06T00:28:28.877Z,73.34
2022-09-06T00:29:30.255Z,73.21
2022-09-06T00:30:32.364Z,73.23
2022-09-06T00:31:33.752Z,73.23
2022-09-06T00:32:35.137Z,73.16
2022-09-06T00:33:36.569Z,73.05
2022-09-06T00:34:37.919Z,73.32
2022-09-06T00:35:39.244Z,73.42
2022-09-06T00:36:40.591Z,73.55
2022-09-06T00:37:41.959Z,73.76
2022-09-06T00:38:43.521Z,73.39
2022-09-06T00:39:44.896Z,73.41
2022-09-06T00:40:46.259Z,72.96
2022-09-06T00:41:47.632Z,72.92
2022-09-06T00:42:49.097Z,73.35
2022-09-06T00:43:50.428Z,73.39
2022-09-06T00:44:51.808Z,73.79
2022-09-06T00:45:53.731Z,73.92
2022-09-06T00:46:55.265Z,74.09
2022-09-06T00:47:58.400Z,74.24
2022-09-06T00:49:23.019Z,74.20
2022-09-06T00:50:24.495Z,74.26
2022-09-06T00:51:28.347Z,74.10
2022-09-06T00:52:30.246Z,74.28
2022-09-06T00:53:32.394Z,74.69
2022-09-06T00:54:33.920Z,74.63
2022-09-06T00:55:35.419Z,74.48
2022-09-06T00:56:40.528Z,74.48
2022-09-06T00:57:42.112Z,74.54
2022-09-06T00:58:43.660Z,74.79
2022-09-06T00:59:45.842Z,75.38
2022-09-06T01:00:47.224Z,75.32
2022-09-06T01:01:48.713Z,75.65
2022-09-06T01:02:50.356Z,75.62
2022-09-06T01:03:51.832Z,75.58
2022-09-06T01:04:53.827Z,75.80
2022-09-06T01:06:11.840Z,76.29
2022-09-06T01:07:31.620Z,76.30
2022-09-06T01:08:39.912Z,76.93
2022-09-06T01:09:56.120Z,76.42
2022-09-06T01:11:08.275Z,76.45
2022-09-06T01:12:21.734Z,76.24
2022-09-06T01:13:41.792Z,76.36
2022-09-06T01:14:49.195Z,76.14
2022-09-06T01:15:50.585Z,76.08
2022-09-06T01:16:54.718Z,76.32
2022-09-06T01:17:58.899Z,76.21
2022-09-06T01:19:00.207Z,76.45
2022-09-06T01:20:04.172Z,76.61
2022-09-06T01:21:14.868Z,76.79
2022-09-06T01:22:44.414Z,76.57
2022-09-06T01:23:45.759Z,76.72
2022-09-06T01:24:49.836Z,77.11
2022-09-06T01:25:54.060Z,77.06
2022-09-06T01:27:24.595Z,77.14
2022-09-06T01:28:31.907Z,76.92
2022-09-06T01:29:39.342Z,77.14
2022-09-06T01:30:43.956Z,77.10
2022-09-06T01:31:48.238Z,77.52
2022-09-06T01:32:49.591Z,77.41
2022-09-06T01:33:53.542Z,77.08
2022-09-06T01:35:07.159Z,77.17
2022-09-06T01:36:11.935Z,77.29
2022-09-06T01:37:15.860Z,77.18
2022-09-06T01:38:17.390Z,77.35
2022-09-06T01:39:27.233Z,77.53
2022-09-06T01:40:28.779Z,77.64
2022-09-06T01:41:30.777Z,77.67
2022-09-06T01:42:33.009Z,77.69
2022-09-06T01:43:39.393Z,77.68
2022-09-06T01:44:43.659Z,77.73
2022-09-06T01:45:53.691Z,77.71
2022-09-06T01:47:04.673Z,77.67
2022-09-06T01:48:28.880Z,78.24
2022-09-06T01:49:36.410Z,78.13
2022-09-06T01:50:56.618Z,78.13
2022-09-06T01:51:57.968Z,78.37
2022-09-06T01:53:01.955Z,78.62
2022-09-06T01:54:21.411Z,78.75
2022-09-06T01:55:35.135Z,78.99
2022-09-06T01:56:48.267Z,78.40
2022-09-06T01:58:08.428Z,78.26
2022-09-06T01:59:28.513Z,78.70
2022-09-06T02:00:31.991Z,78.35
2022-09-06T02:01:51.977Z,78.32
2022-09-06T02:03:05.513Z,78.33
2022-09-06T02:04:18.557Z,78.33
2022-09-06T02:05:26.080Z,78.35
2022-09-06T02:06:29.834Z,78.72
2022-09-06T02:07:31.936Z,78.70
2022-09-06T02:08:36.802Z,79.02
2022-09-06T02:09:40.208Z,79.25
2022-09-06T02:10:47.909Z,79.37
2022-09-06T02:11:51.897Z,79.68
2022-09-06T02:12:54.303Z,80.20
2022-09-06T02:13:58.644Z,80.20
2022-09-06T02:15:02.400Z,79.90
2022-09-06T02:16:05.443Z,80.10
2022-09-06T02:17:09.708Z,80.06
2022-09-06T02:18:21.722Z,79.85
2022-09-06T02:19:32.776Z,79.67
2022-09-06T02:20:36.005Z,79.77
2022-09-06T02:21:39.964Z,79.52
2022-09-06T02:22:43.617Z,79.12
2022-09-06T02:23:46.537Z,78.72
2022-09-06T02:24:50.019Z,78.61
2022-09-06T02:25:54.068Z,78.47
2022-09-06T02:26:55.591Z,78.54
2022-09-06T02:27:57.027Z,78.47
2022-09-06T02:28:58.484Z,78.36
2022-09-06T02:29:59.832Z,79.44
2022-09-06T02:31:03.724Z,79.83
2022-09-06T02:32:10.996Z,81.68
2022-09-06T02:33:19.867Z,83.71
2022-09-06T02:34:21.742Z,86.75
2022-09-06T02:35:23.149Z,88.64
2022-09-06T02:36:24.848Z,92.68
2022-09-06T02:37:26.980Z,94.70
2022-09-06T02:38:28.409Z,95.17
2022-09-06T02:39:29.852Z,92.02
2022-09-06T02:40:31.258Z,92.21
2022-09-06T02:41:33.235Z,93.54
2022-09-06T02:42:34.861Z,97.91
2022-09-06T02:43:36.255Z,98.91
2022-09-06T02:44:37.664Z,100.00
2022-09-06T02:45:39.038Z,100.00
2022-09-06T02:46:40.607Z,100.00
2022-09-06T02:47:42.011Z,100.00
2022-09-06T02:48:43.335Z,100.00
2022-09-06T02:49:44.685Z,100.00
2022-09-06T02:50:46.013Z,100.00
2022-09-06T02:51:47.364Z,100.00
2022-09-06T02:53:00.723Z,100.00
2022-09-06T02:54:02.079Z,100.00
2022-09-06T02:55:03.591Z,100.00
2022-09-06T02:56:05.083Z,100.00
2022-09-06T02:57:06.452Z,100.00
2022-09-06T02:58:09.023Z,100.00
2022-09-06T02:59:10.404Z,100.00
2022-09-06T03:00:12.016Z,100.00
2022-09-06T03:01:13.391Z,100.00
2022-09-06T03:02:14.913Z,100.00
2022-09-06T03:03:16.315Z,100.00
2022-09-06T03:04:17.678Z,100.00
2022-09-06T03:05:19.228Z,100.00
2022-09-06T03:06:20.608Z,100.00
2022-09-06T03:07:22.119Z,100.00
2022-09-06T03:08:24.786Z,100.00
2022-09-06T03:09:26.363Z,100.00
2022-09-06T03:10:27.800Z,100.00
2022-09-06T03:11:29.172Z,100.00
2022-09-06T03:12:30.509Z,100.00
2022-09-06T03:13:31.829Z,100.00
2022-09-06T03:14:33.155Z,100.00
2022-09-06T03:15:34.513Z,100.00
2022-09-06T03:16:35.905Z,100.00
2022-09-06T03:17:37.399Z,100.00
2022-09-06T03:18:38.742Z,100.00
2022-09-06T03:19:40.074Z,100.00
2022-09-06T03:20:41.447Z,100.00
2022-09-06T03:21:42.789Z,100.00
2022-09-06T03:22:44.118Z,100.00
2022-09-06T03:23:45.498Z,100.00
2022-09-06T03:24:46.858Z,100.00
2022-09-06T03:25:48.187Z,100.00
2022-09-06T03:26:49.603Z,100.00
2022-09-06T03:27:50.978Z,100.00
2022-09-06T03:28:52.328Z,100.00
2022-09-06T03:29:53.682Z,100.00
2022-09-06T03:30:55.074Z,100.00
2022-09-06T03:31:56.466Z,100.00
2022-09-06T03:33:00.819Z,100.00
2022-09-06T03:34:05.344Z,100.00
2022-09-06T03:35:09.711Z,100.00
2022-09-06T03:36:11.082Z,100.00
2022-09-06T03:37:12.411Z,100.00
2022-09-06T03:38:13.734Z,100.00
2022-09-06T03:39:15.112Z,100.00
2022-09-06T03:40:16.635Z,100.00
2022-09-06T03:41:17.987Z,100.00
2022-09-06T03:42:19.338Z,100.00
2022-09-06T03:43:21.295Z,100.00
2022-09-06T03:44:22.639Z,100.00
2022-09-06T03:45:23.974Z,100.00
2022-09-06T03:46:25.360Z,100.00
2022-09-06T03:47:26.747Z,100.00
2022-09-06T03:48:29.014Z,100.00
2022-09-06T03:49:30.459Z,100.00
2022-09-06T03:50:31.831Z,100.00
2022-09-06T03:51:33.172Z,100.00
2022-09-06T03:52:34.678Z,100.00
2022-09-06T03:53:36.028Z,100.00
2022-09-06T03:54:37.381Z,100.00
2022-09-06T03:55:39.180Z,100.00
2022-09-06T03:56:40.545Z,100.00
2022-09-06T03:57:41.939Z,100.00
2022-09-06T03:58:43.297Z,100.00
2022-09-06T03:59:44.643Z,100.00
2022-09-06T04:00:46.033Z,100.00
2022-09-06T04:01:47.396Z,100.00
2022-09-06T04:02:48.728Z,100.00
2022-09-06T04:03:50.160Z,100.00
2022-09-06T04:04:51.490Z,100.00
2022-09-06T04:05:52.863Z,100.00
2022-09-06T04:06:54.196Z,100.00
2022-09-06T04:07:55.563Z,100.00
2022-09-06T04:08:57.015Z,100.00
2022-09-06T04:09:58.338Z,100.00
2022-09-06T04:11:00.100Z,100.00
2022-09-06T04:12:01.524Z,100.00
2022-09-06T04:13:02.860Z,100.00
2022-09-06T04:14:04.210Z,100.00
2022-09-06T04:15:05.892Z,100.00
2022-09-06T04:16:07.382Z,100.00
2022-09-06T04:17:08.737Z,100.00
2022-09-06T04:18:10.087Z,100.00
2022-09-06T04:19:11.470Z,100.00
2022-09-06T04:20:13.602Z,100.00
2022-09-06T04:21:14.944Z,100.00
2022-09-06T04:22:16.300Z,100.00
2022-09-06T04:23:18.256Z,100.00
2022-09-06T04:24:19.608Z,100.00
2022-09-06T04:25:20.964Z,100.00
2022-09-06T04:26:22.548Z,100.00
2022-09-06T04:27:23.932Z,100.00
2022-09-06T04:28:25.446Z,100.00
2022-09-06T04:29:26.828Z,100.00
2022-09-06T04:30:28.284Z,100.00
2022-09-06T04:31:29.705Z,100.00
2022-09-06T04:32:31.105Z,100.00
2022-09-06T04:33:33.871Z,100.00
2022-09-06T04:34:35.203Z,100.00
2022-09-06T04:35:37.192Z,100.00
2022-09-06T04:36:38.571Z,100.00
2022-09-06T04:37:40.116Z,100.00
2022-09-06T04:38:42.546Z,100.00
2022-09-06T04:39:44.262Z,100.00
2022-09-06T04:40:45.743Z,100.00
2022-09-06T04:41:47.156Z,100.00
2022-09-06T04:42:48.479Z,100.00
2022-09-06T04:43:49.836Z,100.00
2022-09-06T04:44:51.160Z,100.00
2022-09-06T04:45:52.569Z,100.00
2022-09-06T04:47:07.413Z,100.00
2022-09-06T04:48:11.063Z,100.00
2022-09-06T04:49:12.408Z,100.00
2022-09-06T04:50:13.795Z,100.00
2022-09-06T04:51:15.228Z,100.00
2022-09-06T04:52:16.650Z,100.00
2022-09-06T04:53:17.994Z,100.00
2022-09-06T04:54:19.336Z,100.00
2022-09-06T04:55:20.687Z,100.00
2022-09-06T04:56:23.045Z,100.00
2022-09-06T04:57:24.411Z,100.00
2022-09-06T04:58:25.787Z,100.00
2022-09-06T04:59:27.203Z,100.00
2022-09-06T05:00:29.476Z,100.00
2022-09-06T05:01:30.855Z,100.00
2022-09-06T05:02:32.310Z,100.00
2022-09-06T05:03:33.704Z,100.00
2022-09-06T05:04:35.069Z,100.00
2022-09-06T05:05:36.414Z,100.00
2022-09-06T05:06:37.760Z,100.00
2022-09-06T05:07:39.107Z,100.00
2022-09-06T05:08:41.131Z,100.00
2022-09-06T05:09:42.467Z,100.00
2022-09-06T05:10:43.808Z,100.00
2022-09-06T05:11:46.122Z,100.00
2022-09-06T05:12:48.315Z,100.00
2022-09-06T05:13:49.638Z,100.00
2022-09-06T05:14:50.979Z,100.00
2022-09-06T05:15:52.331Z,100.00
2022-09-06T05:16:53.797Z,100.00
2022-09-06T05:18:01.515Z,100.00
2022-09-06T05:19:02.862Z,100.00
2022-09-06T05:20:04.321Z,100.00
2022-09-06T05:21:05.801Z,100.00
2022-09-06T05:22:07.164Z,100.00
2022-09-06T05:23:08.543Z,100.00
2022-09-06T05:24:09.859Z,100.00
2022-09-06T05:25:11.216Z,100.00
2022-09-06T05:26:12.543Z,100.00
2022-09-06T05:27:14.009Z,100.00
2022-09-06T05:28:15.635Z,100.00
2022-09-06T05:29:16.979Z,100.00
2022-09-06T05:30:18.368Z,100.00
2022-09-06T05:31:29.940Z,100.00
2022-09-06T05:32:31.338Z,100.00
2022-09-06T05:33:32.780Z,100.00
2022-09-06T05:34:34.164Z,100.00
2022-09-06T05:35:35.553Z,100.00
2022-09-06T05:36:36.911Z,100.00
2022-09-06T05:37:38.279Z,100.00
2022-09-06T05:38:39.601Z,100.00
2022-09-06T05:39:41.025Z,100.00
2022-09-06T05:40:42.420Z,100.00
2022-09-06T05:41:43.777Z,100.00
2022-09-06T05:42:45.152Z,100.00
2022-09-06T05:43:46.566Z,100.00
2022-09-06T05:44:47.902Z,100.00
2022-09-06T05:45:49.346Z,100.00
2022-09-06T05:46:50.795Z,100.00
2022-09-06T05:47:52.142Z,100.00
2022-09-06T05:48:57.502Z,100.00
2022-09-06T05:49:58.823Z,100.00
2022-09-06T05:51:01.275Z,100.00
2022-09-06T05:52:02.723Z,100.00
2022-09-06T05:53:04.085Z,100.00
2022-09-06T05:54:05.869Z,100.00
2022-09-06T05:55:07.459Z,100.00
2022-09-06T05:56:09.355Z,100.00
2022-09-06T05:57:10.723Z,100.00
2022-09-06T05:58:12.043Z,100.00
2022-09-06T05:59:13.463Z,100.00
2022-09-06T06:00:14.886Z,100.00
2022-09-06T06:01:20.658Z,100.00
2022-09-06T06:02:22.726Z,100.00
2022-09-06T06:03:24.111Z,100.00
2022-09-06T06:04:25.497Z,100.00
2022-09-06T06:05:26.841Z,100.00
2022-09-06T06:06:29.274Z,100.00
2022-09-06T06:07:30.622Z,100.00
2022-09-06T06:08:31.992Z,100.00
2022-09-06T06:09:33.334Z,100.00
2022-09-06T06:10:38.439Z,100.00
2022-09-06T06:11:40.213Z,100.00
2022-09-06T06:12:41.615Z,100.00
2022-09-06T06:13:43.018Z,100.00
2022-09-06T06:14:44.344Z,100.00
2022-09-06T06:15:45.728Z,100.00
2022-09-06T06:16:47.123Z,100.00
2022-09-06T06:17:48.531Z,100.00
2022-09-06T06:18:52.183Z,100.00
2022-09-06T06:19:53.990Z,100.00
2022-09-06T06:21:07.163Z,100.00
2022-09-06T06:22:08.508Z,100.00
2022-09-06T06:23:09.856Z,100.00
2022-09-06T06:24:11.267Z,100.00
2022-09-06T06:25:12.764Z,100.00
2022-09-06T06:26:14.335Z,100.00
2022-09-06T06:27:15.675Z,100.00
2022-09-06T06:28:16.996Z,100.00
2022-09-06T06:29:18.351Z,100.00
2022-09-06T06:30:19.686Z,100.00
2022-09-06T06:31:21.289Z,100.00
2022-09-06T06:32:22.707Z,100.00
2022-09-06T06:33:24.050Z,100.00
2022-09-06T06:34:25.399Z,99.34
2022-09-06T06:35:26.748Z,100.00
2022-09-06T06:36:28.636Z,100.00
2022-09-06T06:37:32.564Z,96.95
2022-09-06T06:38:35.774Z,97.87
2022-09-06T06:39:37.193Z,98.36
2022-09-06T06:40:38.595Z,97.87
2022-09-06T06:41:39.948Z,95.96
2022-09-06T06:43:00.086Z,94.83
2022-09-06T06:44:02.736Z,94.64
2022-09-06T06:45:04.335Z,92.81
2022-09-06T06:46:09.790Z,94.16
2022-09-06T06:47:11.179Z,94.01
2022-09-06T06:48:12.506Z,90.37
2022-09-06T06:49:13.871Z,90.66
2022-09-06T06:50:15.254Z,91.01
2022-09-06T06:51:19.060Z,90.34
2022-09-06T06:52:20.381Z,90.27
2022-09-06T06:53:21.735Z,89.13
2022-09-06T06:54:23.083Z,90.37
2022-09-06T06:55:24.561Z,89.96
2022-09-06T06:56:30.011Z,91.19
2022-09-06T06:57:31.358Z,89.61
2022-09-06T06:58:32.684Z,88.42
2022-09-06T06:59:34.010Z,87.01
2022-09-06T07:00:35.388Z,86.05
2022-09-06T07:01:37.139Z,85.50
2022-09-06T07:02:38.561Z,86.45
2022-09-06T07:03:39.951Z,86.20
2022-09-06T07:04:41.287Z,83.48
2022-09-06T07:08:25.374Z,80.69
2022-09-06T07:09:26.765Z,80.98
2022-09-06T07:10:35.338Z,80.85
2022-09-06T07:11:36.722Z,78.67
2022-09-06T07:12:38.068Z,80.25
2022-09-06T07:13:39.411Z,80.10
2022-09-06T07:14:40.741Z,81.93
2022-09-06T07:15:42.094Z,80.66
2022-09-06T07:16:43.651Z,80.70
2022-09-06T07:17:45.083Z,80.41
2022-09-06T07:18:46.724Z,80.74
2022-09-06T07:22:31.569Z,81.74
2022-09-06T07:24:54.221Z,82.27
2022-09-06T07:25:55.571Z,80.57
2022-09-06T07:28:18.251Z,81.70
2022-09-06T07:29:19.602Z,82.16
2022-09-06T07:30:21.118Z,81.25
2022-09-06T07:32:43.924Z,81.88
2022-09-06T07:33:45.278Z,82.04
2022-09-06T07:34:46.647Z,82.07
2022-09-06T07:35:55.416Z,82.17
2022-09-06T07:36:56.799Z,82.13
2022-09-06T07:37:59.220Z,81.64
2022-09-06T07:39:00.603Z,82.09
2022-09-06T07:40:02.613Z,82.86
2022-09-06T07:41:08.639Z,82.70
2022-09-06T07:42:09.994Z,83.56
2022-09-06T07:43:11.341Z,81.82
2022-09-06T07:44:12.684Z,81.76
2022-09-06T07:45:14.075Z,83.49
2022-09-06T07:46:16.648Z,83.00
2022-09-06T07:48:40.365Z,81.09
2022-09-06T07:51:23.343Z,81.81
2022-09-06T07:54:07.128Z,80.99
2022-09-06T07:55:14.300Z,81.91
2022-09-06T07:56:15.927Z,80.39
2022-09-06T07:57:17.282Z,80.53
2022-09-06T07:58:18.624Z,81.63
2022-09-06T07:59:19.964Z,79.90
2022-09-06T08:00:21.368Z,79.36
2022-09-06T08:01:36.023Z,79.10
2022-09-06T08:02:37.490Z,80.67
2022-09-06T08:03:38.831Z,81.03
2022-09-06T08:04:40.180Z,79.44
2022-09-06T08:09:45.555Z,78.61
2022-09-06T08:10:50.125Z,77.84
2022-09-06T08:11:51.483Z,78.05
2022-09-06T08:12:53.219Z,77.38
2022-09-06T08:13:55.054Z,77.90
2022-09-06T08:14:56.487Z,77.37
2022-09-06T08:16:01.352Z,76.20
2022-09-06T08:17:03.470Z,77.70
2022-09-06T08:18:04.931Z,76.04
2022-09-06T08:19:07.040Z,75.95
2022-09-06T08:20:08.568Z,76.04
2022-09-06T08:21:12.905Z,75.86
2022-09-06T08:22:14.490Z,74.43
2022-09-06T08:23:15.857Z,73.30
2022-09-06T08:24:17.189Z,73.58
2022-09-06T08:25:18.528Z,74.42
2022-09-06T08:26:21.590Z,74.68
2022-09-06T08:27:22.917Z,73.03
2022-09-06T08:28:28.583Z,73.07
2022-09-06T08:29:33.271Z,72.36
2022-09-06T08:30:34.648Z,71.18
2022-09-06T08:31:37.492Z,71.07
2022-09-06T08:32:38.867Z,71.65
2022-09-06T08:33:40.642Z,72.01
2022-09-06T08:34:41.989Z,71.66
2022-09-06T08:35:43.363Z,72.29
2022-09-06T08:36:44.733Z,72.24
2022-09-06T08:37:46.086Z,72.32
2022-09-06T08:38:47.506Z,71.64
2022-09-06T08:39:48.875Z,73.10
2022-09-06T08:40:51.379Z,72.92
2022-09-06T08:41:57.618Z,73.13
2022-09-06T08:42:58.981Z,72.83
2022-09-06T08:45:24.785Z,72.07
2022-09-06T08:46:32.996Z,71.83
2022-09-06T08:47:35.228Z,72.42
2022-09-06T08:48:42.233Z,71.82
2022-09-06T08:49:44.748Z,71.42
2022-09-06T08:50:53.672Z,69.89
2022-09-06T08:52:01.011Z,71.34
2022-09-06T08:53:16.791Z,71.03
2022-09-06T08:54:24.888Z,69.80
2022-09-06T08:55:37.112Z,69.63
2022-09-06T08:56:41.685Z,69.05
2022-09-06T08:58:01.058Z,68.89
2022-09-06T08:59:07.045Z,67.30
2022-09-06T09:00:11.040Z,67.84
2022-09-06T09:01:16.590Z,67.35
2022-09-06T09:02:20.218Z,67.80
2022-09-06T09:03:24.958Z,66.48
2022-09-06T09:04:27.625Z,67.05
2022-09-06T09:05:31.200Z,66.94
2022-09-06T09:06:33.208Z,68.09
2022-09-06T09:07:37.233Z,67.62
2022-09-06T09:08:55.892Z,64.82
2022-09-06T09:09:58.226Z,63.57
2022-09-06T09:11:04.116Z,63.69
2022-09-06T09:12:06.283Z,61.97
2022-09-06T09:13:09.168Z,61.86
2022-09-06T09:14:28.930Z,61.83
2022-09-06T09:15:30.376Z,62.26
2022-09-06T09:16:32.384Z,60.65
2022-09-06T09:17:35.913Z,59.92
2022-09-06T09:18:39.829Z,60.11
2022-09-06T09:19:41.639Z,60.00
2022-09-06T09:20:43.044Z,61.59
2022-09-06T09:21:44.961Z,61.04
2022-09-06T09:22:46.614Z,61.07
2022-09-06T09:23:52.940Z,61.53
2022-09-06T09:24:57.635Z,60.61
2022-09-06T09:26:02.097Z,61.35
2022-09-06T09:27:10.952Z,61.33
2022-09-06T09:28:19.428Z,60.48
2022-09-06T09:29:26.780Z,60.44
2022-09-06T09:30:48.349Z,60.42
2022-09-06T09:31:53.618Z,59.50
2022-09-06T09:32:55.507Z,59.78
2022-09-06T09:33:56.940Z,60.06
2022-09-06T09:35:16.815Z,61.21
2022-09-06T09:36:21.188Z,60.28
2022-09-06T09:38:49.045Z,59.74
2022-09-06T09:39:52.770Z,59.08
2022-09-06T09:41:01.626Z,59.28
2022-09-06T09:42:03.048Z,58.85
2022-09-06T09:43:13.107Z,59.73
2022-09-06T09:44:18.560Z,58.30
2022-09-06T09:45:19.856Z,58.64
2022-09-06T09:46:23.887Z,57.21
2022-09-06T09:47:26.513Z,56.69
2022-09-06T09:48:28.058Z,57.32
2022-09-06T09:49:29.758Z,58.17
2022-09-06T09:50:32.437Z,57.20
2022-09-06T09:51:47.330Z,56.05
2022-09-06T09:52:48.672Z,57.23
2022-09-06T09:53:54.444Z,57.84
2022-09-06T09:54:56.935Z,57.39
2022-09-06T09:55:58.924Z,57.43
2022-09-06T09:57:00.317Z,57.59
2022-09-06T09:58:01.744Z,54.19
2022-09-06T09:59:06.312Z,54.63
2022-09-06T10:00:08.055Z,55.93
2022-09-06T10:01:11.457Z,56.67
2022-09-06T10:02:22.045Z,56.87
2022-09-06T10:03:28.070Z,55.02
2022-09-06T10:04:44.507Z,55.98
2022-09-06T10:06:05.035Z,56.48
2022-09-06T10:07:26.770Z,55.30
2022-09-06T10:08:30.802Z,56.64
2022-09-06T10:09:36.871Z,56.40
2022-09-06T10:10:42.445Z,54.90
2022-09-06T10:11:53.524Z,55.89
2022-09-06T10:13:06.881Z,55.87
2022-09-06T10:14:23.332Z,54.88
2022-09-06T10:15:39.538Z,55.18
2022-09-06T10:16:42.180Z,55.47
2022-09-06T10:17:50.856Z,55.10
2022-09-06T10:18:55.400Z,55.81
2022-09-06T10:20:03.636Z,54.46
2022-09-06T10:21:15.330Z,54.42
2022-09-06T10:22:22.825Z,54.61
2022-09-06T10:25:23.072Z,51.79
2022-09-06T10:26:49.068Z,52.79
2022-09-06T10:28:12.041Z,51.38
2022-09-06T10:29:13.708Z,52.26
2022-09-06T10:30:15.154Z,54.17
2022-09-06T10:31:28.919Z,52.79
2022-09-06T10:32:48.213Z,53.65
2022-09-06T10:33:49.739Z,51.33
2022-09-06T10:35:09.453Z,52.07
2022-09-06T10:36:10.789Z,50.86
2022-09-06T10:37:12.119Z,51.57
2022-09-06T10:38:31.993Z,52.02
2022-09-06T10:39:52.171Z,51.90
2022-09-06T10:41:30.872Z,50.74
2022-09-06T10:42:35.312Z,49.72
2022-09-06T10:43:54.241Z,50.36
2022-09-06T10:45:16.568Z,49.98
2022-09-06T10:46:18.916Z,50.39
2022-09-06T10:47:21.673Z,50.61
2022-09-06T10:48:29.524Z,50.95
2022-09-06T10:49:32.986Z,50.38
2022-09-06T10:50:37.475Z,50.17
2022-09-06T10:51:41.813Z,50.64
2022-09-06T10:52:44.873Z,51.22
2022-09-06T10:53:55.284Z,51.43
2022-09-06T10:54:58.216Z,50.08
2022-09-06T10:56:07.447Z,49.00
2022-09-06T11:00:05.518Z,49.40
2022-09-06T11:01:07.465Z,50.56
2022-09-06T11:02:29.213Z,50.18
2022-09-06T11:06:16.436Z,49.46
2022-09-06T11:07:29.907Z,50.44
2022-09-06T11:08:48.149Z,50.62
2022-09-06T11:09:53.183Z,51.06
2022-09-06T11:10:54.979Z,50.57
2022-09-06T11:12:34.826Z,50.41
2022-09-06T11:13:36.164Z,49.19
2022-09-06T11:14:38.413Z,49.71
2022-09-06T11:15:48.491Z,50.04
2022-09-06T11:16:56.639Z,50.34
2022-09-06T11:18:04.129Z,49.47
2022-09-06T11:19:15.748Z,48.46
2022-09-06T11:20:23.012Z,48.53
2022-09-06T11:21:44.305Z,48.21
2022-09-06T11:22:45.628Z,48.41
2022-09-06T11:23:46.954Z,47.98
2022-09-06T11:25:00.180Z,48.39
2022-09-06T11:26:21.782Z,47.87
2022-09-06T11:27:33.336Z,47.64
2022-09-06T11:28:34.809Z,46.74
2022-09-06T11:29:39.807Z,48.15
2022-09-06T11:30:45.817Z,48.18
2022-09-06T11:32:19.066Z,47.26
2022-09-06T11:33:28.400Z,47.32
2022-09-06T11:34:29.784Z,47.78
2022-09-06T11:35:32.302Z,47.95
2022-09-06T11:36:38.142Z,47.80
2022-09-06T11:37:43.132Z,46.07
2022-09-06T11:38:53.323Z,47.28
2022-09-06T11:40:28.474Z,48.48
2022-09-06T11:41:31.778Z,49.15
2022-09-06T11:43:02.112Z,48.43
2022-09-06T11:44:04.277Z,48.39
2022-09-06T11:45:05.575Z,48.32
2022-09-06T11:46:06.931Z,47.93
2022-09-06T11:47:08.352Z,47.85
2022-09-06T11:48:24.616Z,47.94
2022-09-06T11:49:30.983Z,49.32
2022-09-06T11:51:04.805Z,48.79
2022-09-06T11:52:28.166Z,48.75
2022-09-06T11:53:30.839Z,48.89
2022-09-06T11:54:41.196Z,48.57
2022-09-06T11:55:47.711Z,48.36
2022-09-06T11:57:18.169Z,49.41
2022-09-06T11:58:25.647Z,48.86
2022-09-06T11:59:35.639Z,49.70
2022-09-06T12:00:36.987Z,48.21
2022-09-06T12:01:39.348Z,48.19
2022-09-06T12:02:41.550Z,48.96
2022-09-06T12:05:04.284Z,47.67
2022-09-06T12:06:22.265Z,46.31
2022-09-06T12:07:23.573Z,46.08
2022-09-06T12:08:31.770Z,45.62
2022-09-06T12:09:37.007Z,46.21
2022-09-06T12:10:41.124Z,46.64
2022-09-06T12:11:45.812Z,46.45
2022-09-06T12:12:50.600Z,45.45
2022-09-06T12:13:56.111Z,45.15
2022-09-06T12:14:57.499Z,45.58
2022-09-06T12:15:59.642Z,44.07
2022-09-06T12:17:01.048Z,44.78
2022-09-06T12:18:02.407Z,45.52
2022-09-06T12:19:03.779Z,45.55
2022-09-06T12:20:05.410Z,46.00
2022-09-06T12:21:06.879Z,47.42
2022-09-06T12:22:26.641Z,45.92
2022-09-06T12:23:36.840Z,46.04
2022-09-06T12:24:38.171Z,47.48
2022-09-06T12:25:39.508Z,48.27
2022-09-06T12:26:55.291Z,48.00
2022-09-06T12:27:58.593Z,47.62
2022-09-06T12:29:00.004Z,47.05
2022-09-06T12:30:12.157Z,47.56
2022-09-06T12:31:22.362Z,45.57
2022-09-06T12:32:28.326Z,45.37
2022-09-06T12:33:36.660Z,45.71
2022-09-06T12:34:38.156Z,45.19
2022-09-06T12:37:03.555Z,46.81
2022-09-06T12:38:06.351Z,47.38
2022-09-06T12:39:11.217Z,47.39
2022-09-06T12:40:12.919Z,48.15
2022-09-06T12:41:14.420Z,48.22
2022-09-06T12:42:18.153Z,48.76
2022-09-06T12:43:19.783Z,48.95
2022-09-06T12:44:30.246Z,47.87
2022-09-06T12:45:31.788Z,47.92
2022-09-06T12:46:34.165Z,48.54
2022-09-06T12:47:37.158Z,48.91
2022-09-06T12:48:38.504Z,48.95
2022-09-06T12:49:39.953Z,48.22
2022-09-06T12:50:41.291Z,48.41
2022-09-06T12:51:45.435Z,48.23
2022-09-06T12:52:54.459Z,48.03
2022-09-06T12:54:03.247Z,49.25
2022-09-06T12:55:13.651Z,48.39
2022-09-06T12:56:19.375Z,48.12
2022-09-06T12:57:22.409Z,48.04
2022-09-06T12:58:27.941Z,49.40
2022-09-06T12:59:32.186Z,51.02
2022-09-06T13:00:35.278Z,51.48
2022-09-06T13:01:37.060Z,50.53
2022-09-06T13:02:41.353Z,49.63
2022-09-06T13:03:52.845Z,49.36
2022-09-06T13:05:00.214Z,48.91
2022-09-06T13:06:03.867Z,48.57
2022-09-06T13:07:08.916Z,48.07
2022-09-06T13:08:15.017Z,46.47
2022-09-06T13:09:18.777Z,47.39
2022-09-06T13:10:23.252Z,46.11
2022-09-06T13:11:30.215Z,46.84
2022-09-06T13:12:36.389Z,48.21
2022-09-06T13:13:46.423Z,48.20
2022-09-06T13:14:51.843Z,48.25
2022-09-06T13:15:53.470Z,48.00
2022-09-06T13:16:55.336Z,48.63
2022-09-06T13:18:15.379Z,50.11
2022-09-06T13:19:18.367Z,49.63
2022-09-06T13:20:22.816Z,49.37
2022-09-06T13:21:29.264Z,48.76
2022-09-06T13:22:37.904Z,47.62
2022-09-06T13:23:43.368Z,48.27
2022-09-06T13:24:47.255Z,48.46
2022-09-06T13:25:50.162Z,48.35
2022-09-06T13:26:51.932Z,49.08
2022-09-06T13:27:54.898Z,50.29
2022-09-06T13:28:56.272Z,50.22
2022-09-06T13:29:58.595Z,49.44
2022-09-06T13:31:08.811Z,49.79
2022-09-06T13:32:13.123Z,50.98
2022-09-06T13:33:24.473Z,51.42
2022-09-06T13:34:30.315Z,49.64
2022-09-06T13:35:33.904Z,50.33
2022-09-06T13:36:35.542Z,51.65
2022-09-06T13:37:36.853Z,51.20
2022-09-06T13:38:38.165Z,50.35
2022-09-06T13:39:40.821Z,52.06
2022-09-06T13:41:13.489Z,51.94
2022-09-06T13:42:09.105Z,49.96
2022-09-06T13:43:13.747Z,50.74
2022-09-06T13:44:15.144Z,51.69
2022-09-06T13:45:21.919Z,52.07
2022-09-06T13:46:23.285Z,50.99
2022-09-06T13:47:31.472Z,51.53
2022-09-06T13:48:33.244Z,51.34
2022-09-06T13:49:34.587Z,51.30
2022-09-06T13:50:36.275Z,51.96
2022-09-06T13:51:38.556Z,52.37
2022-09-06T13:52:39.891Z,52.14
2022-09-06T13:53:41.268Z,51.69
2022-09-06T13:54:42.615Z,51.80
2022-09-06T13:55:43.963Z,52.25
2022-09-06T13:56:45.472Z,52.27
2022-09-06T13:57:46.826Z,51.84
2022-09-06T13:58:48.181Z,51.98
2022-09-06T13:59:49.509Z,51.66
2022-09-06T14:00:51.170Z,51.97
2022-09-06T14:02:12.617Z,51.07
2022-09-06T14:03:40.379Z,51.84
2022-09-06T14:04:44.486Z,51.65
2022-09-06T14:05:45.859Z,52.16
2022-09-06T14:06:47.820Z,52.62
2022-09-06T14:07:49.200Z,52.22
2022-09-06T14:09:06.446Z,52.73
2022-09-06T14:10:09.247Z,52.69
2022-09-06T14:11:10.639Z,53.04
2022-09-06T14:12:12.007Z,53.80
2022-09-06T14:13:13.923Z,54.25
2022-09-06T14:14:15.862Z,54.18